createdAt,value
2019-02-28T00:00:55.119Z,30.13
2019-02-28T00:06:00.343Z,29.20
2019-02-28T00:11:05.000Z,29.50
2019-02-28T00:16:10.298Z,30.93
2019-02-28T00:21:14.387Z,23.17
2019-02-28T00:26:18.409Z,20.77
2019-02-28T00:31:22.587Z,23.33
2019-02-28T00:36:26.657Z,21.50
2019-02-28T00:41:31.613Z,19.70
2019-02-28T00:46:35.549Z,21.50
2019-02-28T00:51:40.908Z,22.83
2019-02-28T00:56:44.734Z,24.97
2019-02-28T01:01:48.734Z,25.90
2019-02-28T01:06:52.929Z,31.00
2019-02-28T01:11:57.057Z,27.77
2019-02-28T01:17:01.268Z,26.07
2019-02-28T01:22:05.304Z,34.03
2019-02-28T01:27:09.438Z,32.67
2019-02-28T01:32:15.645Z,32.90
2019-02-28T01:37:20.896Z,33.13
2019-02-28T01:42:25.558Z,29.87
2019-02-28T01:47:30.350Z,35.47
2019-02-28T01:52:36.701Z,35.20
2019-02-28T01:57:44.114Z,36.73
2019-02-28T02:02:48.370Z,41.40
2019-02-28T02:07:53.088Z,33.40
2019-02-28T02:12:57.896Z,33.33
2019-02-28T02:18:02.778Z,36.37
2019-02-28T02:23:07.474Z,43.30
2019-02-28T02:28:12.319Z,37.57
2019-02-28T02:33:17.761Z,34.50
2019-02-28T02:38:22.701Z,31.13
2019-02-28T02:43:27.733Z,34.20
2019-02-28T02:48:32.681Z,32.17
2019-02-28T02:53:41.862Z,34.97
2019-02-28T02:58:45.051Z,31.00
2019-02-28T03:03:49.984Z,32.83
2019-02-28T03:08:54.929Z,35.23
2019-02-28T03:14:00.062Z,31.40
2019-02-28T03:19:05.419Z,37.33
2019-02-28T03:24:14.661Z,32.90
2019-02-28T03:29:17.330Z,31.40
2019-02-28T03:34:22.211Z,32.97
2019-02-28T03:39:27.276Z,29.50
2019-02-28T03:44:32.033Z,29.70
2019-02-28T03:49:36.484Z,28.17
2019-02-28T03:54:42.489Z,29.30
2019-02-28T03:59:55.360Z,33.53
2019-02-28T04:04:55.191Z,33.67
2019-02-28T04:10:00.302Z,38.00
2019-02-28T04:15:10.261Z,32.60
2019-02-28T04:20:14.377Z,32.97
2019-02-28T04:25:23.316Z,29.17
2019-02-28T04:30:26.272Z,29.93
2019-02-28T04:35:31.136Z,37.33
2019-02-28T04:40:36.069Z,31.47
2019-02-28T04:45:41.332Z,31.80
2019-02-28T04:50:46.333Z,35.17
2019-02-28T04:55:51.740Z,28.57
2019-02-28T05:00:55.105Z,30.23
2019-02-28T05:05:59.885Z,31.87
2019-02-28T05:11:04.180Z,35.67
2019-02-28T05:16:12.343Z,34.30
2019-02-28T05:21:16.537Z,35.87
2019-02-28T05:26:23.506Z,31.23
2019-02-28T05:31:29.199Z,31.60
2019-02-28T05:36:34.571Z,29.70
2019-02-28T05:41:39.533Z,35.13
2019-02-28T05:46:45.686Z,32.20
2019-02-28T05:51:51.346Z,30.07
2019-02-28T05:56:58.046Z,33.03
2019-02-28T06:02:02.564Z,33.37
2019-02-28T06:07:09.392Z,33.93
2019-02-28T06:12:15.156Z,33.97
2019-02-28T06:17:20.628Z,35.60
2019-02-28T06:22:26.795Z,31.53
2019-02-28T06:27:41.231Z,30.43
2019-02-28T06:32:39.574Z,40.60
2019-02-28T06:37:45.105Z,42.97
2019-02-28T06:42:50.170Z,40.63
2019-02-28T06:47:55.174Z,38.03
2019-02-28T06:53:00.982Z,37.37
2019-02-28T06:58:07.242Z,39.50
2019-02-28T07:03:12.394Z,44.17
2019-02-28T07:08:20.756Z,45.13
2019-02-28T07:13:25.239Z,32.80
2019-02-28T07:18:30.118Z,35.90
2019-02-28T07:23:35.502Z,34.37
2019-02-28T07:28:40.707Z,33.63
2019-02-28T07:33:45.616Z,31.30
2019-02-28T07:38:51.411Z,35.00
2019-02-28T07:43:56.366Z,33.53
2019-02-28T07:49:01.677Z,32.77
2019-02-28T07:54:07.231Z,37.80
2019-02-28T07:59:14.784Z,36.57
2019-02-28T08:04:21.457Z,35.03
2019-02-28T08:09:29.522Z,36.00
2019-02-28T08:14:34.876Z,40.70
2019-02-28T08:19:40.108Z,36.50
2019-02-28T08:24:44.951Z,34.87
2019-02-28T08:29:50.141Z,36.47
2019-02-28T08:34:59.392Z,35.13
2019-02-28T08:40:03.745Z,36.47
2019-02-28T08:45:10.888Z,41.27
2019-02-28T08:50:20.661Z,38.10
2019-02-28T08:55:28.657Z,38.73
2019-02-28T09:00:33.374Z,34.83
2019-02-28T09:05:37.169Z,35.87
2019-02-28T09:10:43.739Z,40.23
2019-02-28T09:15:46.964Z,39.77
2019-02-28T09:20:50.421Z,37.40
2019-02-28T09:25:56.588Z,38.20
2019-02-28T09:31:01.306Z,41.87
2019-02-28T09:36:07.683Z,43.67
2019-02-28T09:41:12.037Z,44.67
2019-02-28T09:46:18.783Z,41.73
2019-02-28T09:51:23.170Z,42.50
2019-02-28T09:56:28.364Z,47.03
2019-02-28T10:01:32.175Z,40.13
2019-02-28T10:06:36.117Z,41.93
2019-02-28T10:11:40.812Z,48.40
2019-02-28T10:16:49.536Z,45.60
2019-02-28T10:21:53.269Z,47.40
2019-02-28T10:26:56.914Z,53.47
2019-02-28T10:32:01.004Z,50.13
2019-02-28T10:37:05.489Z,42.10
2019-02-28T10:42:09.778Z,47.83
2019-02-28T10:47:14.088Z,53.53
2019-02-28T10:52:18.304Z,49.20
2019-02-28T10:57:22.809Z,47.00
2019-02-28T11:02:26.998Z,46.97
2019-02-28T11:07:34.201Z,46.13
2019-02-28T11:12:41.651Z,39.00
2019-02-28T11:17:46.843Z,37.27
2019-02-28T11:22:52.444Z,46.70
2019-02-28T11:27:59.210Z,38.30
2019-02-28T11:33:04.991Z,46.60
2019-02-28T11:38:10.460Z,47.70
2019-02-28T11:43:16.004Z,47.33
2019-02-28T11:48:21.442Z,44.20
2019-02-28T11:53:26.508Z,41.20
2019-02-28T11:58:31.696Z,43.23
2019-02-28T12:03:37.751Z,45.63
2019-02-28T12:08:44.871Z,45.27
2019-02-28T12:13:51.598Z,38.10
2019-02-28T12:18:57.200Z,41.50
2019-02-28T12:24:02.033Z,40.17
2019-02-28T12:29:09.507Z,33.67
2019-02-28T12:34:15.307Z,39.30
2019-02-28T12:39:23.587Z,37.30
2019-02-28T12:44:28.711Z,46.90
2019-02-28T12:49:33.988Z,42.83
2019-02-28T12:54:38.904Z,36.37
2019-02-28T12:59:45.865Z,38.07
2019-02-28T13:04:51.989Z,38.80
2019-02-28T13:09:57.358Z,35.27
2019-02-28T13:15:03.264Z,43.77
2019-02-28T13:20:11.956Z,33.33
2019-02-28T13:25:19.488Z,33.23
2019-02-28T13:30:24.365Z,33.67
2019-02-28T13:35:30.257Z,30.67
2019-02-28T13:40:35.481Z,39.13
2019-02-28T13:45:40.890Z,42.07
2019-02-28T13:50:45.985Z,42.80
2019-02-28T13:55:52.673Z,36.10
2019-02-28T14:00:58.381Z,36.50
2019-02-28T14:06:04.599Z,38.10
2019-02-28T14:11:11.050Z,39.00
2019-02-28T14:16:15.518Z,38.33
2019-02-28T14:21:19.283Z,41.80
2019-02-28T14:26:22.856Z,35.07
2019-02-28T14:31:29.545Z,44.10
2019-02-28T14:36:32.827Z,36.17
2019-02-28T14:41:37.191Z,37.77
2019-02-28T14:46:41.403Z,41.70
2019-02-28T14:51:45.845Z,48.33
2019-02-28T14:56:50.162Z,40.10
2019-02-28T15:01:54.368Z,37.13
2019-02-28T15:06:58.946Z,37.70
2019-02-28T15:12:03.120Z,37.60
2019-02-28T15:17:08.341Z,41.93
2019-02-28T15:22:14.208Z,42.07
2019-02-28T15:27:19.232Z,34.73
2019-02-28T15:32:24.643Z,35.33
2019-02-28T15:37:30.344Z,51.00
2019-02-28T15:42:39.669Z,33.83
2019-02-28T15:47:44.073Z,38.13
2019-02-28T15:52:50.073Z,39.60
2019-02-28T15:57:55.465Z,39.47
2019-02-28T16:03:00.735Z,37.53
2019-02-28T16:08:10.393Z,29.40
2019-02-28T16:13:16.901Z,34.63
2019-02-28T16:18:22.111Z,28.20
2019-02-28T16:23:30.750Z,29.63
2019-02-28T16:28:34.385Z,34.57
2019-02-28T16:33:39.539Z,34.03
2019-02-28T16:38:45.081Z,38.17
2019-02-28T16:43:52.298Z,37.67
2019-02-28T16:48:58.261Z,27.93
2019-02-28T16:54:03.743Z,24.17
2019-02-28T16:59:09.215Z,19.30
2019-02-28T17:04:17.260Z,18.67
2019-02-28T17:09:30.302Z,28.47
2019-02-28T17:14:36.787Z,18.13
2019-02-28T17:19:42.356Z,17.60
2019-02-28T17:24:47.966Z,17.17
2019-02-28T17:30:00.552Z,15.77
2019-02-28T17:35:07.613Z,21.73
2019-02-28T17:40:13.353Z,18.30
2019-02-28T17:45:30.370Z,18.73
2019-02-28T17:51:01.563Z,15.50
2019-02-28T17:56:45.443Z,16.10
2019-02-28T18:02:38.874Z,17.10
2019-02-28T18:08:23.204Z,15.63
2019-02-28T18:14:14.614Z,18.53
2019-02-28T18:19:51.117Z,19.63
2019-02-28T18:25:33.952Z,20.07
2019-02-28T18:31:18.989Z,14.80
2019-02-28T18:36:23.678Z,18.13
2019-02-28T18:41:29.727Z,19.03
2019-02-28T18:46:35.827Z,23.67
2019-02-28T18:51:40.374Z,17.37
2019-02-28T18:56:44.765Z,21.00
2019-02-28T19:01:49.098Z,22.50
2019-02-28T19:06:54.866Z,22.70
2019-02-28T19:12:01.693Z,20.43
2019-02-28T19:17:08.044Z,18.53
2019-02-28T19:22:13.306Z,18.97
2019-02-28T19:27:19.435Z,17.90
2019-02-28T19:32:24.642Z,19.23
2019-02-28T19:37:29.937Z,21.90
2019-02-28T19:42:34.979Z,22.47
2019-02-28T19:47:40.099Z,30.47
2019-02-28T19:52:45.203Z,23.30
2019-02-28T19:57:50.267Z,27.23
2019-02-28T20:02:56.407Z,31.90
2019-02-28T20:08:01.677Z,27.13
2019-02-28T20:13:07.652Z,26.83
2019-02-28T20:18:13.134Z,30.63
2019-02-28T20:23:18.192Z,27.10
2019-02-28T20:28:24.169Z,29.80
2019-02-28T20:33:29.346Z,29.50
2019-02-28T20:38:34.575Z,24.07
2019-02-28T20:43:39.613Z,25.57
2019-02-28T20:48:45.665Z,30.27
2019-02-28T20:53:50.876Z,24.73
2019-02-28T20:58:56.687Z,22.27
2019-02-28T21:04:01.798Z,22.70
2019-02-28T21:09:07.770Z,27.73
2019-02-28T21:14:14.515Z,26.97
2019-02-28T21:19:19.778Z,16.17
2019-02-28T21:24:24.707Z,18.77
2019-02-28T21:29:29.246Z,19.80
2019-02-28T21:34:34.737Z,18.50
2019-02-28T21:39:40.018Z,23.43
2019-02-28T21:44:45.428Z,17.50
2019-02-28T21:49:50.647Z,16.33
2019-02-28T21:54:56.810Z,13.80
2019-02-28T22:00:02.176Z,15.93
2019-02-28T22:05:09.055Z,13.80
2019-02-28T22:10:14.208Z,15.90
2019-02-28T22:15:19.917Z,20.63
2019-02-28T22:20:25.692Z,14.40
2019-02-28T22:25:30.707Z,21.50
2019-02-28T22:31:02.452Z,15.57
2019-02-28T22:36:09.446Z,14.80
2019-02-28T22:41:15.441Z,16.53
2019-02-28T22:46:19.553Z,13.23
2019-02-28T22:51:23.772Z,14.80
2019-02-28T22:56:28.246Z,10.20
2019-02-28T23:01:35.369Z,15.20
2019-02-28T23:06:39.989Z,16.10
2019-02-28T23:11:44.259Z,12.70
2019-02-28T23:16:48.569Z,14.10
2019-02-28T23:21:53.014Z,12.53
2019-02-28T23:27:16.769Z,23.53
2019-02-28T23:32:34.612Z,11.13
2019-02-28T23:37:41.037Z,10.23
2019-02-28T23:42:46.203Z,11.60
2019-02-28T23:47:51.599Z,13.90
2019-02-28T23:52:57.624Z,13.90
2019-02-28T23:58:02.482Z,16.37
